sensor_id;sensor_type;location;lat;lon;timestamp;pressure;altitude;pressure_sealevel;temperature
72405;BMP280;60395;52.020;113.548;2022-09-09T00:03:10;92574.22;;;29.54
72405;BMP280;60395;52.020;113.548;2022-09-09T00:06:43;92568.31;;;29.80
72405;BMP280;60395;52.020;113.548;2022-09-09T00:09:50;92583.50;;;30.25
72405;BMP280;60395;52.020;113.548;2022-09-09T00:16:27;92573.41;;;30.64
72405;BMP280;60395;52.020;113.548;2022-09-09T00:19:41;92583.47;;;30.92
72405;BMP280;60395;52.020;113.548;2022-09-09T00:22:53;92584.69;;;31.39
72405;BMP280;60395;52.020;113.548;2022-09-09T00:29:26;92578.25;;;31.29
72405;BMP280;60395;52.020;113.548;2022-09-09T00:32:33;92568.13;;;29.47
72405;BMP280;60395;52.020;113.548;2022-09-09T00:35:42;92561.22;;;27.90
72405;BMP280;60395;52.020;113.548;2022-09-09T00:38:49;92571.97;;;26.35
72405;BMP280;60395;52.020;113.548;2022-09-09T00:52:53;92574.22;;;22.60
72405;BMP280;60395;52.020;113.548;2022-09-09T00:56:08;92580.13;;;21.90
72405;BMP280;60395;52.020;113.548;2022-09-09T01:12:48;92562.22;;;20.81
72405;BMP280;60395;52.020;113.548;2022-09-09T01:15:57;92575.31;;;20.74
72405;BMP280;60395;52.020;113.548;2022-09-09T01:19:07;92573.09;;;20.56
72405;BMP280;60395;52.020;113.548;2022-09-09T01:29:01;92564.44;;;20.21
72405;BMP280;60395;52.020;113.548;2022-09-09T01:32:42;92569.81;;;20.32
72405;BMP280;60395;52.020;113.548;2022-09-09T01:35:57;92562.38;;;20.22
72405;BMP280;60395;52.020;113.548;2022-09-09T01:39:10;92561.84;;;20.19
72405;BMP280;60395;52.020;113.548;2022-09-09T01:42:14;92567.28;;;20.41
72405;BMP280;60395;52.020;113.548;2022-09-09T01:45:20;92590.44;;;20.21
72405;BMP280;60395;52.020;113.548;2022-09-09T01:48:24;92573.00;;;20.35
72405;BMP280;60395;52.020;113.548;2022-09-09T01:51:40;92571.03;;;20.22
72405;BMP280;60395;52.020;113.548;2022-09-09T01:54:47;92560.97;;;20.12
72405;BMP280;60395;52.020;113.548;2022-09-09T01:58:10;92568.81;;;20.14
72405;BMP280;60395;52.020;113.548;2022-09-09T02:04:50;92562.44;;;20.33
72405;BMP280;60395;52.020;113.548;2022-09-09T02:08:06;92570.38;;;20.45
72405;BMP280;60395;52.020;113.548;2022-09-09T02:11:23;92563.06;;;20.56
72405;BMP280;60395;52.020;113.548;2022-09-09T02:14:48;92572.25;;;20.70
72405;BMP280;60395;52.020;113.548;2022-09-09T02:17:56;92553.81;;;20.76
72405;BMP280;60395;52.020;113.548;2022-09-09T02:21:02;92555.13;;;20.77
72405;BMP280;60395;52.020;113.548;2022-09-09T02:24:07;92547.75;;;20.88
72405;BMP280;60395;52.020;113.548;2022-09-09T02:27:20;92546.13;;;20.93
72405;BMP280;60395;52.020;113.548;2022-09-09T02:30:29;92548.81;;;21.04
72405;BMP280;60395;52.020;113.548;2022-09-09T02:33:40;92534.56;;;21.08
72405;BMP280;60395;52.020;113.548;2022-09-09T02:36:45;92561.56;;;21.35
72405;BMP280;60395;52.020;113.548;2022-09-09T02:39:49;92556.47;;;21.42
72405;BMP280;60395;52.020;113.548;2022-09-09T02:42:55;92550.38;;;21.43
72405;BMP280;60395;52.020;113.548;2022-09-09T02:49:28;92541.81;;;21.94
72405;BMP280;60395;52.020;113.548;2022-09-09T02:56:09;92522.03;;;22.10
72405;BMP280;60395;52.020;113.548;2022-09-09T02:59:16;92524.53;;;22.22
72405;BMP280;60395;52.020;113.548;2022-09-09T03:02:24;92516.31;;;22.35
72405;BMP280;60395;52.020;113.548;2022-09-09T03:05:37;92516.22;;;22.56
72405;BMP280;60395;52.020;113.548;2022-09-09T03:08:41;92510.59;;;22.60
72405;BMP280;60395;52.020;113.548;2022-09-09T03:11:56;92510.38;;;22.73
72405;BMP280;60395;52.020;113.548;2022-09-09T03:15:01;92497.63;;;22.73
72405;BMP280;60395;52.020;113.548;2022-09-09T03:18:06;92493.53;;;22.93
72405;BMP280;60395;52.020;113.548;2022-09-09T03:21:10;92494.38;;;23.20
72405;BMP280;60395;52.020;113.548;2022-09-09T03:24:15;92488.75;;;23.24
72405;BMP280;60395;52.020;113.548;2022-09-09T03:27:19;92495.47;;;23.42
72405;BMP280;60395;52.020;113.548;2022-09-09T03:30:23;92492.53;;;23.54
72405;BMP280;60395;52.020;113.548;2022-09-09T03:33:28;92487.16;;;23.54
72405;BMP280;60395;52.020;113.548;2022-09-09T03:36:33;92481.22;;;23.62
72405;BMP280;60395;52.020;113.548;2022-09-09T03:39:36;92483.34;;;23.79
72405;BMP280;60395;52.020;113.548;2022-09-09T03:42:44;92478.78;;;23.86
72405;BMP280;60395;52.020;113.548;2022-09-09T03:45:48;92476.91;;;23.93
72405;BMP280;60395;52.020;113.548;2022-09-09T03:48:51;92473.66;;;24.01
72405;BMP280;60395;52.020;113.548;2022-09-09T03:51:56;92471.16;;;24.08
72405;BMP280;60395;52.020;113.548;2022-09-09T03:55:00;92463.59;;;24.10
72405;BMP280;60395;52.020;113.548;2022-09-09T03:58:04;92460.75;;;24.21
72405;BMP280;60395;52.020;113.548;2022-09-09T04:01:14;92474.84;;;24.38
72405;BMP280;60395;52.020;113.548;2022-09-09T04:04:21;92459.22;;;24.41
72405;BMP280;60395;52.020;113.548;2022-09-09T04:07:25;92466.03;;;24.57
72405;BMP280;60395;52.020;113.548;2022-09-09T04:10:30;92466.34;;;24.79
72405;BMP280;60395;52.020;113.548;2022-09-09T04:13:36;92454.16;;;24.97
72405;BMP280;60395;52.020;113.548;2022-09-09T04:16:45;92448.31;;;25.11
72405;BMP280;60395;52.020;113.548;2022-09-09T04:19:49;92447.69;;;25.11
72405;BMP280;60395;52.020;113.548;2022-09-09T04:22:53;92443.06;;;25.18
72405;BMP280;60395;52.020;113.548;2022-09-09T04:25:58;92432.00;;;25.22
72405;BMP280;60395;52.020;113.548;2022-09-09T04:29:03;92434.84;;;25.20
72405;BMP280;60395;52.020;113.548;2022-09-09T04:32:10;92426.47;;;25.15
72405;BMP280;60395;52.020;113.548;2022-09-09T04:35:15;92417.91;;;25.30
72405;BMP280;60395;52.020;113.548;2022-09-09T04:38:20;92415.94;;;25.54
72405;BMP280;60395;52.020;113.548;2022-09-09T04:41:25;92417.28;;;25.70
72405;BMP280;60395;52.020;113.548;2022-09-09T04:44:29;92414.50;;;25.87
72405;BMP280;60395;52.020;113.548;2022-09-09T04:47:33;92425.50;;;26.00
72405;BMP280;60395;52.020;113.548;2022-09-09T04:50:42;92419.28;;;26.10
72405;BMP280;60395;52.020;113.548;2022-09-09T04:53:47;92420.94;;;26.22
72405;BMP280;60395;52.020;113.548;2022-09-09T04:56:55;92421.50;;;26.31
72405;BMP280;60395;52.020;113.548;2022-09-09T04:59:59;92423.00;;;26.46
72405;BMP280;60395;52.020;113.548;2022-09-09T05:03:08;92416.28;;;26.53
72405;BMP280;60395;52.020;113.548;2022-09-09T05:06:20;92407.75;;;26.66
72405;BMP280;60395;52.020;113.548;2022-09-09T05:09:28;92406.53;;;26.65
72405;BMP280;60395;52.020;113.548;2022-09-09T05:12:32;92406.25;;;26.75
72405;BMP280;60395;52.020;113.548;2022-09-09T05:15:35;92405.00;;;26.89
72405;BMP280;60395;52.020;113.548;2022-09-09T05:18:39;92396.13;;;26.91
72405;BMP280;60395;52.020;113.548;2022-09-09T05:21:42;92405.56;;;27.13
72405;BMP280;60395;52.020;113.548;2022-09-09T05:24:49;92398.66;;;27.08
72405;BMP280;60395;52.020;113.548;2022-09-09T05:27:53;92389.47;;;27.20
72405;BMP280;60395;52.020;113.548;2022-09-09T05:30:58;92386.06;;;27.28
72405;BMP280;60395;52.020;113.548;2022-09-09T05:34:04;92379.28;;;27.36
72405;BMP280;60395;52.020;113.548;2022-09-09T05:37:07;92378.81;;;27.48
72405;BMP280;60395;52.020;113.548;2022-09-09T05:40:11;92374.72;;;27.71
72405;BMP280;60395;52.020;113.548;2022-09-09T05:43:15;92384.19;;;27.63
72405;BMP280;60395;52.020;113.548;2022-09-09T05:46:20;92376.53;;;27.66
72405;BMP280;60395;52.020;113.548;2022-09-09T05:49:26;92378.28;;;27.76
72405;BMP280;60395;52.020;113.548;2022-09-09T05:52:29;92374.59;;;27.79
72405;BMP280;60395;52.020;113.548;2022-09-09T05:55:33;92374.06;;;27.85
72405;BMP280;60395;52.020;113.548;2022-09-09T05:58:37;92372.78;;;28.06
72405;BMP280;60395;52.020;113.548;2022-09-09T06:01:44;92362.31;;;27.95
72405;BMP280;60395;52.020;113.548;2022-09-09T06:04:55;92359.63;;;27.95
72405;BMP280;60395;52.020;113.548;2022-09-09T06:08:03;92355.78;;;28.07
72405;BMP280;60395;52.020;113.548;2022-09-09T06:11:12;92357.91;;;28.13
72405;BMP280;60395;52.020;113.548;2022-09-09T06:14:17;92348.97;;;28.15
72405;BMP280;60395;52.020;113.548;2022-09-09T06:17:26;92335.59;;;28.28
72405;BMP280;60395;52.020;113.548;2022-09-09T06:20:29;92338.13;;;28.37
72405;BMP280;60395;52.020;113.548;2022-09-09T06:23:33;92333.94;;;28.59
72405;BMP280;60395;52.020;113.548;2022-09-09T06:26:40;92334.09;;;28.51
72405;BMP280;60395;52.020;113.548;2022-09-09T06:29:46;92319.75;;;28.52
72405;BMP280;60395;52.020;113.548;2022-09-09T06:32:51;92329.94;;;28.52
72405;BMP280;60395;52.020;113.548;2022-09-09T06:35:54;92327.06;;;28.54
72405;BMP280;60395;52.020;113.548;2022-09-09T06:39:00;92324.78;;;28.63
72405;BMP280;60395;52.020;113.548;2022-09-09T06:42:06;92317.91;;;28.57
72405;BMP280;60395;52.020;113.548;2022-09-09T06:45:21;92315.88;;;28.64
72405;BMP280;60395;52.020;113.548;2022-09-09T06:48:30;92317.59;;;28.68
72405;BMP280;60395;52.020;113.548;2022-09-09T06:51:36;92313.44;;;28.75
72405;BMP280;60395;52.020;113.548;2022-09-09T06:54:39;92322.44;;;28.87
72405;BMP280;60395;52.020;113.548;2022-09-09T06:57:43;92311.28;;;28.97
72405;BMP280;60395;52.020;113.548;2022-09-09T07:00:51;92308.56;;;28.97
72405;BMP280;60395;52.020;113.548;2022-09-09T07:03:56;92307.53;;;28.94
72405;BMP280;60395;52.020;113.548;2022-09-09T07:07:01;92301.28;;;28.96
72405;BMP280;60395;52.020;113.548;2022-09-09T07:10:06;92300.28;;;28.99
72405;BMP280;60395;52.020;113.548;2022-09-09T07:13:11;92302.91;;;28.86
72405;BMP280;60395;52.020;113.548;2022-09-09T07:16:17;92289.75;;;28.76
72405;BMP280;60395;52.020;113.548;2022-09-09T07:19:21;92289.50;;;28.65
72405;BMP280;60395;52.020;113.548;2022-09-09T07:22:27;92292.63;;;28.67
72405;BMP280;60395;52.020;113.548;2022-09-09T07:25:31;92281.00;;;28.75
72405;BMP280;60395;52.020;113.548;2022-09-09T07:28:34;92280.84;;;28.84
72405;BMP280;60395;52.020;113.548;2022-09-09T07:31:39;92282.34;;;28.96
72405;BMP280;60395;52.020;113.548;2022-09-09T07:34:46;92278.44;;;28.95
72405;BMP280;60395;52.020;113.548;2022-09-09T07:37:49;92272.78;;;28.97
72405;BMP280;60395;52.020;113.548;2022-09-09T07:41:05;92279.91;;;29.00
72405;BMP280;60395;52.020;113.548;2022-09-09T07:44:11;92270.94;;;29.02
72405;BMP280;60395;52.020;113.548;2022-09-09T07:47:16;92271.56;;;29.02
72405;BMP280;60395;52.020;113.548;2022-09-09T07:50:21;92262.03;;;29.10
72405;BMP280;60395;52.020;113.548;2022-09-09T07:53:25;92264.72;;;29.10
72405;BMP280;60395;52.020;113.548;2022-09-09T07:56:30;92270.78;;;29.11
72405;BMP280;60395;52.020;113.548;2022-09-09T07:59:36;92265.16;;;29.06
72405;BMP280;60395;52.020;113.548;2022-09-09T08:02:39;92251.63;;;29.13
72405;BMP280;60395;52.020;113.548;2022-09-09T08:05:44;92246.00;;;29.08
72405;BMP280;60395;52.020;113.548;2022-09-09T08:08:50;92240.81;;;29.13
72405;BMP280;60395;52.020;113.548;2022-09-09T08:11:55;92237.47;;;29.06
72405;BMP280;60395;52.020;113.548;2022-09-09T08:14:59;92244.75;;;29.00
72405;BMP280;60395;52.020;113.548;2022-09-09T08:18:06;92236.22;;;28.98
72405;BMP280;60395;52.020;113.548;2022-09-09T08:21:12;92238.91;;;28.98
72405;BMP280;60395;52.020;113.548;2022-09-09T08:24:16;92238.72;;;29.00
72405;BMP280;60395;52.020;113.548;2022-09-09T08:27:22;92232.88;;;28.97
72405;BMP280;60395;52.020;113.548;2022-09-09T08:30:27;92230.16;;;28.97
72405;BMP280;60395;52.020;113.548;2022-09-09T08:33:31;92230.97;;;28.96
72405;BMP280;60395;52.020;113.548;2022-09-09T08:36:38;92233.91;;;28.94
72405;BMP280;60395;52.020;113.548;2022-09-09T08:39:43;92234.91;;;28.90
72405;BMP280;60395;52.020;113.548;2022-09-09T08:42:51;92236.81;;;28.92
72405;BMP280;60395;52.020;113.548;2022-09-09T08:46:11;92241.16;;;28.89
72405;BMP280;60395;52.020;113.548;2022-09-09T08:53:21;92238.00;;;28.80
72405;BMP280;60395;52.020;113.548;2022-09-09T08:56:27;92226.09;;;28.70
72405;BMP280;60395;52.020;113.548;2022-09-09T08:59:33;92228.56;;;28.66
72405;BMP280;60395;52.020;113.548;2022-09-09T09:02:42;92226.50;;;28.66
72405;BMP280;60395;52.020;113.548;2022-09-09T09:09:14;92224.38;;;28.54
72405;BMP280;60395;52.020;113.548;2022-09-09T09:12:23;92220.41;;;28.53
72405;BMP280;60395;52.020;113.548;2022-09-09T09:15:37;92217.50;;;28.55
72405;BMP280;60395;52.020;113.548;2022-09-09T09:18:42;92226.84;;;28.49
72405;BMP280;60395;52.020;113.548;2022-09-09T09:25:27;92226.63;;;28.51
72405;BMP280;60395;52.020;113.548;2022-09-09T09:28:35;92232.47;;;28.54
72405;BMP280;60395;52.020;113.548;2022-09-09T09:31:51;92221.69;;;28.54
72405;BMP280;60395;52.020;113.548;2022-09-09T09:34:57;92216.03;;;28.49
72405;BMP280;60395;52.020;113.548;2022-09-09T09:38:01;92217.22;;;28.37
72405;BMP280;60395;52.020;113.548;2022-09-09T09:41:36;92214.47;;;28.31
72405;BMP280;60395;52.020;113.548;2022-09-09T09:44:41;92212.31;;;28.18
72405;BMP280;60395;52.020;113.548;2022-09-09T09:48:06;92217.91;;;28.16
72405;BMP280;60395;52.020;113.548;2022-09-09T09:51:23;92216.63;;;28.08
72405;BMP280;60395;52.020;113.548;2022-09-09T09:54:41;92209.28;;;28.00
72405;BMP280;60395;52.020;113.548;2022-09-09T09:57:45;92219.88;;;27.96
72405;BMP280;60395;52.020;113.548;2022-09-09T10:00:49;92214.41;;;27.89
72405;BMP280;60395;52.020;113.548;2022-09-09T10:07:21;92213.19;;;27.67
72405;BMP280;60395;52.020;113.548;2022-09-09T10:23:57;92207.69;;;26.74
72405;BMP280;60395;52.020;113.548;2022-09-09T10:33:37;92203.75;;;26.27
72405;BMP280;60395;52.020;113.548;2022-09-09T10:36:45;92217.41;;;26.25
72405;BMP280;60395;52.020;113.548;2022-09-09T10:39:54;92207.44;;;26.09
72405;BMP280;60395;52.020;113.548;2022-09-09T10:53:35;92188.34;;;25.42
72405;BMP280;60395;52.020;113.548;2022-09-09T10:56:42;92202.16;;;25.14
72405;BMP280;60395;52.020;113.548;2022-09-09T10:59:52;92188.72;;;24.82
72405;BMP280;60395;52.020;113.548;2022-09-09T11:03:01;92203.03;;;24.55
72405;BMP280;60395;52.020;113.548;2022-09-09T11:06:09;92197.06;;;24.46
72405;BMP280;60395;52.020;113.548;2022-09-09T11:09:18;92195.03;;;24.38
72405;BMP280;60395;52.020;113.548;2022-09-09T11:12:23;92203.44;;;24.34
72405;BMP280;60395;52.020;113.548;2022-09-09T11:15:35;92194.59;;;24.27
72405;BMP280;60395;52.020;113.548;2022-09-09T11:18:40;92195.09;;;24.21
72405;BMP280;60395;52.020;113.548;2022-09-09T11:21:49;92204.09;;;24.17
72405;BMP280;60395;52.020;113.548;2022-09-09T11:31:42;92209.94;;;24.03
72405;BMP280;60395;52.020;113.548;2022-09-09T11:38:21;92212.31;;;23.89
72405;BMP280;60395;52.020;113.548;2022-09-09T11:41:36;92216.44;;;23.88
72405;BMP280;60395;52.020;113.548;2022-09-09T11:44:41;92220.53;;;23.96
72405;BMP280;60395;52.020;113.548;2022-09-09T11:47:51;92231.56;;;24.01
72405;BMP280;60395;52.020;113.548;2022-09-09T11:57:36;92236.94;;;23.75
72405;BMP280;60395;52.020;113.548;2022-09-09T12:00:45;92236.59;;;23.62
72405;BMP280;60395;52.020;113.548;2022-09-09T12:03:50;92233.75;;;23.47
72405;BMP280;60395;52.020;113.548;2022-09-09T12:07:00;92240.03;;;23.43
72405;BMP280;60395;52.020;113.548;2022-09-09T12:13:25;92246.31;;;23.23
72405;BMP280;60395;52.020;113.548;2022-09-09T12:16:34;92247.69;;;23.22
72405;BMP280;60395;52.020;113.548;2022-09-09T12:19:40;92254.16;;;23.16
72405;BMP280;60395;52.020;113.548;2022-09-09T12:26:28;92253.44;;;22.98
72405;BMP280;60395;52.020;113.548;2022-09-09T12:29:45;92248.22;;;22.88
72405;BMP280;60395;52.020;113.548;2022-09-09T12:33:01;92248.19;;;22.79
72405;BMP280;60395;52.020;113.548;2022-09-09T12:36:12;92247.22;;;22.74
72405;BMP280;60395;52.020;113.548;2022-09-09T12:39:44;92242.31;;;22.68
72405;BMP280;60395;52.020;113.548;2022-09-09T12:42:49;92254.75;;;22.44
72405;BMP280;60395;52.020;113.548;2022-09-09T12:46:07;92256.94;;;22.14
72405;BMP280;60395;52.020;113.548;2022-09-09T12:49:28;92257.84;;;21.91
72405;BMP280;60395;52.020;113.548;2022-09-09T12:52:35;92258.56;;;21.81
72405;BMP280;60395;52.020;113.548;2022-09-09T12:55:57;92257.28;;;21.80
72405;BMP280;60395;52.020;113.548;2022-09-09T12:59:00;92257.06;;;21.73
72405;BMP280;60395;52.020;113.548;2022-09-09T13:02:17;92259.50;;;21.67
72405;BMP280;60395;52.020;113.548;2022-09-09T13:05:41;92263.78;;;21.53
72405;BMP280;60395;52.020;113.548;2022-09-09T13:08:44;92264.53;;;21.33
72405;BMP280;60395;52.020;113.548;2022-09-09T13:11:53;92270.41;;;21.25
72405;BMP280;60395;52.020;113.548;2022-09-09T13:14:58;92272.75;;;21.10
72405;BMP280;60395;52.020;113.548;2022-09-09T13:18:06;92271.00;;;20.95
72405;BMP280;60395;52.020;113.548;2022-09-09T13:21:13;92260.50;;;20.83
72405;BMP280;60395;52.020;113.548;2022-09-09T13:24:32;92264.31;;;20.75
72405;BMP280;60395;52.020;113.548;2022-09-09T13:27:40;92262.28;;;20.65
72405;BMP280;60395;52.020;113.548;2022-09-09T13:31:05;92260.53;;;20.62
72405;BMP280;60395;52.020;113.548;2022-09-09T13:34:22;92256.84;;;20.57
72405;BMP280;60395;52.020;113.548;2022-09-09T13:37:33;92250.22;;;20.56
72405;BMP280;60395;52.020;113.548;2022-09-09T13:40:38;92239.56;;;20.56
72405;BMP280;60395;52.020;113.548;2022-09-09T13:43:45;92238.66;;;20.59
72405;BMP280;60395;52.020;113.548;2022-09-09T13:47:06;92247.44;;;20.58
72405;BMP280;60395;52.020;113.548;2022-09-09T13:50:26;92248.84;;;20.57
72405;BMP280;60395;52.020;113.548;2022-09-09T13:53:29;92244.91;;;20.56
72405;BMP280;60395;52.020;113.548;2022-09-09T13:56:33;92241.84;;;20.41
72405;BMP280;60395;52.020;113.548;2022-09-09T13:59:37;92247.34;;;20.28
72405;BMP280;60395;52.020;113.548;2022-09-09T14:03:01;92241.84;;;20.19
72405;BMP280;60395;52.020;113.548;2022-09-09T14:06:07;92244.41;;;20.11
72405;BMP280;60395;52.020;113.548;2022-09-09T14:09:12;92248.44;;;20.10
72405;BMP280;60395;52.020;113.548;2022-09-09T14:12:18;92255.56;;;20.13
72405;BMP280;60395;52.020;113.548;2022-09-09T14:15:21;92259.13;;;20.10
72405;BMP280;60395;52.020;113.548;2022-09-09T14:18:24;92260.78;;;20.05
72405;BMP280;60395;52.020;113.548;2022-09-09T14:21:28;92252.91;;;19.92
72405;BMP280;60395;52.020;113.548;2022-09-09T14:24:31;92267.84;;;19.77
72405;BMP280;60395;52.020;113.548;2022-09-09T14:27:34;92262.19;;;19.59
72405;BMP280;60395;52.020;113.548;2022-09-09T14:30:39;92267.56;;;19.36
72405;BMP280;60395;52.020;113.548;2022-09-09T14:33:43;92260.03;;;19.18
72405;BMP280;60395;52.020;113.548;2022-09-09T14:36:46;92266.28;;;19.02
72405;BMP280;60395;52.020;113.548;2022-09-09T14:39:50;92261.66;;;18.89
72405;BMP280;60395;52.020;113.548;2022-09-09T14:42:53;92265.13;;;18.75
72405;BMP280;60395;52.020;113.548;2022-09-09T14:46:10;92261.09;;;18.64
72405;BMP280;60395;52.020;113.548;2022-09-09T14:49:14;92262.19;;;18.56
72405;BMP280;60395;52.020;113.548;2022-09-09T14:52:17;92269.25;;;18.49
72405;BMP280;60395;52.020;113.548;2022-09-09T14:55:20;92265.63;;;18.42
72405;BMP280;60395;52.020;113.548;2022-09-09T14:58:24;92260.03;;;18.36
72405;BMP280;60395;52.020;113.548;2022-09-09T15:01:32;92261.50;;;18.32
72405;BMP280;60395;52.020;113.548;2022-09-09T15:04:37;92272.34;;;18.28
72405;BMP280;60395;52.020;113.548;2022-09-09T15:07:40;92266.09;;;18.21
72405;BMP280;60395;52.020;113.548;2022-09-09T15:10:43;92263.66;;;18.17
72405;BMP280;60395;52.020;113.548;2022-09-09T15:13:50;92265.88;;;18.13
72405;BMP280;60395;52.020;113.548;2022-09-09T15:16:54;92262.81;;;18.08
72405;BMP280;60395;52.020;113.548;2022-09-09T15:19:57;92262.19;;;18.08
72405;BMP280;60395;52.020;113.548;2022-09-09T15:23:00;92255.38;;;18.11
72405;BMP280;60395;52.020;113.548;2022-09-09T15:26:04;92260.81;;;18.09
72405;BMP280;60395;52.020;113.548;2022-09-09T15:29:07;92260.38;;;18.04
72405;BMP280;60395;52.020;113.548;2022-09-09T15:32:11;92260.59;;;18.00
72405;BMP280;60395;52.020;113.548;2022-09-09T15:35:14;92252.75;;;17.98
72405;BMP280;60395;52.020;113.548;2022-09-09T15:38:19;92260.16;;;17.96
72405;BMP280;60395;52.020;113.548;2022-09-09T15:41:23;92260.47;;;17.90
72405;BMP280;60395;52.020;113.548;2022-09-09T15:44:26;92259.66;;;17.81
72405;BMP280;60395;52.020;113.548;2022-09-09T15:47:29;92265.91;;;17.75
72405;BMP280;60395;52.020;113.548;2022-09-09T15:50:32;92269.72;;;17.65
72405;BMP280;60395;52.020;113.548;2022-09-09T15:53:35;92278.22;;;17.55
72405;BMP280;60395;52.020;113.548;2022-09-09T15:56:38;92278.00;;;17.47
72405;BMP280;60395;52.020;113.548;2022-09-09T15:59:41;92288.59;;;17.34
72405;BMP280;60395;52.020;113.548;2022-09-09T16:02:44;92289.63;;;17.27
72405;BMP280;60395;52.020;113.548;2022-09-09T16:05:51;92288.03;;;17.19
72405;BMP280;60395;52.020;113.548;2022-09-09T16:08:56;92270.81;;;17.06
72405;BMP280;60395;52.020;113.548;2022-09-09T16:12:00;92261.94;;;16.96
72405;BMP280;60395;52.020;113.548;2022-09-09T16:15:03;92267.66;;;16.88
72405;BMP280;60395;52.020;113.548;2022-09-09T16:18:06;92272.59;;;16.82
72405;BMP280;60395;52.020;113.548;2022-09-09T16:21:16;92266.09;;;16.79
72405;BMP280;60395;52.020;113.548;2022-09-09T16:24:20;92262.59;;;16.70
72405;BMP280;60395;52.020;113.548;2022-09-09T16:27:23;92266.88;;;16.63
72405;BMP280;60395;52.020;113.548;2022-09-09T16:30:26;92256.47;;;16.59
72405;BMP280;60395;52.020;113.548;2022-09-09T16:33:29;92264.50;;;16.57
72405;BMP280;60395;52.020;113.548;2022-09-09T16:36:34;92263.25;;;16.56
72405;BMP280;60395;52.020;113.548;2022-09-09T16:39:38;92273.03;;;16.59
72405;BMP280;60395;52.020;113.548;2022-09-09T16:42:41;92261.84;;;16.57
72405;BMP280;60395;52.020;113.548;2022-09-09T16:45:44;92255.59;;;16.50
72405;BMP280;60395;52.020;113.548;2022-09-09T16:48:50;92267.00;;;16.46
72405;BMP280;60395;52.020;113.548;2022-09-09T16:51:53;92272.44;;;16.44
72405;BMP280;60395;52.020;113.548;2022-09-09T16:54:57;92259.69;;;16.47
72405;BMP280;60395;52.020;113.548;2022-09-09T16:57:59;92259.19;;;16.44
72405;BMP280;60395;52.020;113.548;2022-09-09T17:01:03;92257.50;;;16.36
72405;BMP280;60395;52.020;113.548;2022-09-09T17:04:12;92262.28;;;16.34
72405;BMP280;60395;52.020;113.548;2022-09-09T17:07:16;92258.06;;;16.24
72405;BMP280;60395;52.020;113.548;2022-09-09T17:10:21;92259.63;;;16.19
72405;BMP280;60395;52.020;113.548;2022-09-09T17:13:24;92253.44;;;16.10
72405;BMP280;60395;52.020;113.548;2022-09-09T17:16:30;92253.72;;;16.04
72405;BMP280;60395;52.020;113.548;2022-09-09T17:19:33;92256.72;;;15.96
72405;BMP280;60395;52.020;113.548;2022-09-09T17:22:36;92254.16;;;15.94
72405;BMP280;60395;52.020;113.548;2022-09-09T17:25:39;92247.03;;;15.91
72405;BMP280;60395;52.020;113.548;2022-09-09T17:28:44;92249.88;;;15.87
72405;BMP280;60395;52.020;113.548;2022-09-09T17:31:48;92252.78;;;15.80
72405;BMP280;60395;52.020;113.548;2022-09-09T17:34:51;92264.28;;;15.75
72405;BMP280;60395;52.020;113.548;2022-09-09T17:37:55;92271.03;;;15.72
72405;BMP280;60395;52.020;113.548;2022-09-09T17:41:17;92274.97;;;15.73
72405;BMP280;60395;52.020;113.548;2022-09-09T17:44:20;92265.19;;;15.69
72405;BMP280;60395;52.020;113.548;2022-09-09T17:47:23;92265.84;;;15.70
72405;BMP280;60395;52.020;113.548;2022-09-09T17:50:26;92265.19;;;15.69
72405;BMP280;60395;52.020;113.548;2022-09-09T17:53:29;92268.59;;;15.68
72405;BMP280;60395;52.020;113.548;2022-09-09T17:56:33;92272.50;;;15.69
72405;BMP280;60395;52.020;113.548;2022-09-09T17:59:37;92263.19;;;15.70
72405;BMP280;60395;52.020;113.548;2022-09-09T18:02:40;92245.13;;;15.74
72405;BMP280;60395;52.020;113.548;2022-09-09T18:05:43;92263.56;;;15.76
72405;BMP280;60395;52.020;113.548;2022-09-09T18:08:51;92263.56;;;15.76
72405;BMP280;60395;52.020;113.548;2022-09-09T18:11:56;92263.19;;;15.70
72405;BMP280;60395;52.020;113.548;2022-09-09T18:15:00;92262.72;;;15.65
72405;BMP280;60395;52.020;113.548;2022-09-09T18:18:05;92261.06;;;15.58
72405;BMP280;60395;52.020;113.548;2022-09-09T18:21:08;92265.91;;;15.53
72405;BMP280;60395;52.020;113.548;2022-09-09T18:24:12;92274.00;;;15.49
72405;BMP280;60395;52.020;113.548;2022-09-09T18:27:16;92267.00;;;15.58
72405;BMP280;60395;52.020;113.548;2022-09-09T18:30:19;92276.94;;;15.58
72405;BMP280;60395;52.020;113.548;2022-09-09T18:33:22;92286.34;;;15.55
72405;BMP280;60395;52.020;113.548;2022-09-09T18:36:31;92277.84;;;15.52
72405;BMP280;60395;52.020;113.548;2022-09-09T18:39:35;92279.22;;;15.51
72405;BMP280;60395;52.020;113.548;2022-09-09T18:42:38;92284.44;;;15.53
72405;BMP280;60395;52.020;113.548;2022-09-09T18:45:41;92286.44;;;15.53
72405;BMP280;60395;52.020;113.548;2022-09-09T18:48:47;92276.31;;;15.57
72405;BMP280;60395;52.020;113.548;2022-09-09T18:51:52;92271.56;;;15.60
72405;BMP280;60395;52.020;113.548;2022-09-09T18:54:55;92269.00;;;15.58
72405;BMP280;60395;52.020;113.548;2022-09-09T18:57:58;92266.53;;;15.54
72405;BMP280;60395;52.020;113.548;2022-09-09T19:01:02;92268.16;;;15.47
72405;BMP280;60395;52.020;113.548;2022-09-09T19:04:07;92275.72;;;15.40
72405;BMP280;60395;52.020;113.548;2022-09-09T19:07:10;92271.41;;;15.33
72405;BMP280;60395;52.020;113.548;2022-09-09T19:10:14;92278.78;;;15.30
72405;BMP280;60395;52.020;113.548;2022-09-09T19:13:17;92282.22;;;15.27
72405;BMP280;60395;52.020;113.548;2022-09-09T19:16:21;92281.06;;;15.23
72405;BMP280;60395;52.020;113.548;2022-09-09T19:19:31;92294.44;;;15.19
72405;BMP280;60395;52.020;113.548;2022-09-09T19:22:34;92301.28;;;15.14
72405;BMP280;60395;52.020;113.548;2022-09-09T19:25:38;92296.13;;;15.10